Hinckley, United Kingdom
Current Conditions -  °F | °C
As of 8:20 AM on Tuesday 21 Oct 2014 (Local Time) from EGBE Reporting Station
Rain Showers Rain Showers  
Wind Chill: 55°   Ceiling: 2600
Heat Index: 55°   Visibility: 6mi
Dew Point: 50°   Wind: 17mph
Humidity: 82%   Direction: 290°WNW
Pressure: 29.5"   Gusts: 35mph
Location:  52.54°N, 1.37°W
Report Text: EGBE 210720Z 29015G30KT 260V330 9999 5000NE SHRA SCT009 SCT015 BKN026 13/10 Q0999
Loading
Personal Weather Stations






























Interactive Weather Map
Tropical Storm Tracking
New forecast layout! Learn more

10-Day Weather Forecast

Advertisements
Track Severe Weather on mobile